Aeroporto :
LOGIN :

Iscrizione | Disclaimer

   EN    FR    IT 

 










Sommario :    VFR   VFR Marginale   IFR   IFR Intensivo   IFR Molto Intensivo
Visibilità : 
Base nubi : 
>= 8 km
>= 3000ft
5 / 8 km
1000 / 3000 ft
1500m / 5 km
500 / 1000 ft
800 / 1500m
200 / 500 ft
< 800m
< 200 ft
Simboli :   Temporali  Nebbia  Neve Forte  Precipitazioni Forti  Vento > 20 kt
SIGMETs :   Varie  Temporali  Ghiacco  Turbolenza  Onda orograficha  Ceneri Vulcaniche






- Altitudine del aeroporto : 286 ft
- Codice IATA : FFD


EGVA - RAF Fairford

ULTIMO METAR :
  • 212056Z AUTO 08008KT 9999 OVC005 04/04 A2945 RMK AO2 RAE51 SLP979 P0002 60003 T00430040 57012 $

METARs OBSOLETI :
  • 212051Z AUTO 08007KT 9999 OVC005 04/04 A2945 RMK AO2 RAE51 SLP979 $
  • 212016Z AUTO 08008KT 9999 -RA OVC005 04/04 A2946 RMK AO2 SLP982 $
  • 211956Z AUTO 08007KT 9999 -RA OVC006 04/04 A2946 RMK AO2 RAB22 SLP982 P0001 T00410035 $
  • 211951Z AUTO 08009KT 9999 -RA OVC006 04/03 A2947 RMK AO2 RAB22 SLP986 $
  • 211942Z AUTO 08009KT 9999 -RA OVC007 04/03 A2947 RMK AO2 RAB22 SLP986 $
  • 211922Z AUTO 09011KT 9999 -RA OVC009 05/03 A2947 RMK AO2 RAB22 SLP986 $
  • 211856Z AUTO 08010KT 9999 OVC009 05/03 A2947 RMK AO2 RAB20E31RAB36E49 SLP985 P0000 T00450032 $
  • 211849Z AUTO 08011KT 9999 OVC009 05/03 A2948 RMK AO2 RAB20E31RAB36E49 SLP989 $
  • 211836Z AUTO 08011KT 9999 -RA OVC009 05/03 A2948 RMK AO2 RAB20E31RAB36 SLP989 $
  • 211820Z AUTO 07011KT 9999 -RA OVC009 05/03 A2948 RMK AO2 RAB20 SLP989 $

Previsioni scadute.



MetMap, La meteo Aeronautica in un colpo d'occhio ! - Copyright ORBIFLY Dicembre 2007 - Disclaimer

ORBIFLY MET'MAP TEAM :

Programmazione e sviluppo : Alexandra Zaïnal
Concezione e sviluppo : Baudouin d'Aumeries
Co-Programmazione e sviluppo : Marc-Olivier Méhu
Supporto tecnico e logistico : Manuel Goepfert
Aiuto per la traduzione : Arnaldo La Scala

Contatto : metmap@orbifly.com




FONTI E CREDITI :

   NOAA